createdAt,value
2024-01-03T00:01:40.277Z,98697.59
2024-01-03T00:04:09.319Z,98700.06
2024-01-03T00:06:36.536Z,98704.03
2024-01-03T00:09:04.770Z,98698.69
2024-01-03T00:11:34.081Z,98697.69
2024-01-03T00:14:06.732Z,98692.25
2024-01-03T00:16:38.403Z,98697.16
2024-01-03T00:19:06.726Z,98692.72
2024-01-03T00:21:34.850Z,98677.16
2024-01-03T00:24:05.613Z,98682.13
2024-01-03T00:26:36.779Z,98684.63
2024-01-03T00:29:23.502Z,98678.63
2024-01-03T00:31:51.104Z,98673.66
2024-01-03T00:34:42.902Z,98674.91
2024-01-03T00:37:30.732Z,98673.72
2024-01-03T00:39:59.396Z,98665.97
2024-01-03T00:42:26.940Z,98659.44
2024-01-03T00:44:54.457Z,98659.63
2024-01-03T00:47:23.604Z,98659.06
2024-01-03T00:49:51.667Z,98654.25
2024-01-03T00:52:19.713Z,98651.84
2024-01-03T00:54:47.520Z,98650.38
2024-01-03T00:57:15.582Z,98648.91
2024-01-03T00:59:45.455Z,98650.00
2024-01-03T01:02:13.451Z,98652.59
2024-01-03T01:04:42.269Z,98646.41
2024-01-03T01:07:09.644Z,98655.91
2024-01-03T01:09:37.311Z,98644.84
2024-01-03T01:12:05.286Z,98638.78
2024-01-03T01:14:32.533Z,98637.03
2024-01-03T01:16:59.771Z,98652.50
2024-01-03T01:19:26.912Z,98637.03
2024-01-03T01:21:54.496Z,98653.06
2024-01-03T01:24:21.755Z,98661.72
2024-01-03T01:26:49.154Z,98656.28
2024-01-03T01:29:16.241Z,98650.94
2024-01-03T01:31:43.258Z,98664.22
2024-01-03T01:34:10.456Z,98675.00
2024-01-03T01:36:37.753Z,98677.31
2024-01-03T01:39:05.569Z,98679.81
2024-01-03T01:41:32.691Z,98673.63
2024-01-03T01:44:00.007Z,98674.47
2024-01-03T01:46:28.327Z,98678.78
2024-01-03T01:48:56.023Z,98679.81
2024-01-03T01:51:23.634Z,98683.41
2024-01-03T01:53:51.486Z,98679.91
2024-01-03T01:56:20.662Z,98680.06
2024-01-03T01:58:50.470Z,98678.16
2024-01-03T02:01:19.225Z,98676.22
2024-01-03T02:03:49.213Z,98668.88
2024-01-03T02:06:20.806Z,98667.66
2024-01-03T02:08:47.994Z,98670.16
2024-01-03T02:11:15.688Z,98672.91
2024-01-03T02:13:45.733Z,98669.69
2024-01-03T02:16:15.918Z,98676.75
2024-01-03T02:18:45.359Z,98666.63
2024-01-03T02:21:32.841Z,98666.63
2024-01-03T02:23:59.872Z,98671.69
2024-01-03T02:26:30.291Z,98665.44
2024-01-03T02:28:58.640Z,98673.09
2024-01-03T02:31:25.717Z,98674.03
2024-01-03T02:33:52.955Z,98680.03
2024-01-03T02:36:20.617Z,98682.41
2024-01-03T02:38:52.117Z,98683.97
2024-01-03T02:41:19.541Z,98687.75
2024-01-03T02:43:46.779Z,98688.75
2024-01-03T02:46:13.861Z,98682.00
2024-01-03T02:48:41.685Z,98683.84
2024-01-03T02:51:17.597Z,98668.84
2024-01-03T02:53:44.728Z,98677.97
2024-01-03T02:56:11.981Z,98672.16
2024-01-03T02:58:39.226Z,98669.75
2024-01-03T03:01:06.544Z,98679.34
2024-01-03T03:03:33.853Z,98676.22
2024-01-03T03:06:01.642Z,98684.97
2024-01-03T03:08:28.840Z,98667.81
2024-01-03T03:10:56.051Z,98684.97
2024-01-03T03:13:24.612Z,98685.78
2024-01-03T03:15:51.974Z,98673.91
2024-01-03T03:18:19.380Z,98676.72
2024-01-03T03:20:46.560Z,98682.81
2024-01-03T03:23:13.756Z,98677.91
2024-01-03T03:25:40.854Z,98677.34
2024-01-03T03:28:10.344Z,98682.69
2024-01-03T03:30:37.826Z,98688.38
2024-01-03T03:33:05.254Z,98688.81
2024-01-03T03:35:32.430Z,98701.13
2024-01-03T03:37:59.418Z,98706.75
2024-01-03T03:40:26.557Z,98708.75
2024-01-03T03:42:53.922Z,98714.19
2024-01-03T03:45:21.438Z,98713.59
2024-01-03T03:47:48.670Z,98716.16
2024-01-03T03:50:15.887Z,98714.59
2024-01-03T03:52:43.041Z,98711.91
2024-01-03T03:55:10.033Z,98708.59
2024-01-03T03:57:37.168Z,98703.97
2024-01-03T04:00:04.973Z,98707.38
2024-01-03T04:02:39.993Z,98708.63
2024-01-03T04:05:07.861Z,98707.16
2024-01-03T04:07:35.239Z,98713.34
2024-01-03T04:10:02.234Z,98713.59
2024-01-03T04:12:32.520Z,98712.13
2024-01-03T04:14:59.931Z,98708.72
2024-01-03T04:17:27.302Z,98716.50
2024-01-03T04:19:54.488Z,98722.66
2024-01-03T04:22:21.543Z,98723.56
2024-01-03T04:24:48.772Z,98727.22
2024-01-03T04:27:15.863Z,98725.81
2024-01-03T04:29:42.878Z,98719.47
2024-01-03T04:32:09.969Z,98712.28
2024-01-03T04:34:40.317Z,98710.88
2024-01-03T04:37:07.446Z,98723.06
2024-01-03T04:39:34.437Z,98716.03
2024-01-03T04:42:01.560Z,98716.94
2024-01-03T04:44:28.709Z,98722.09
2024-01-03T04:46:55.708Z,98716.94
2024-01-03T04:49:23.149Z,98701.81
2024-01-03T04:51:50.223Z,98716.94
2024-01-03T04:54:17.397Z,98716.03
2024-01-03T04:56:44.500Z,98716.94
2024-01-03T04:59:11.855Z,98717.03
2024-01-03T05:01:39.704Z,98717.19
2024-01-03T05:04:06.823Z,98719.06
2024-01-03T05:06:34.661Z,98722.63
2024-01-03T05:09:02.079Z,98723.38
2024-01-03T05:11:30.381Z,98739.81
2024-01-03T05:13:57.592Z,98729.44
2024-01-03T05:16:24.805Z,98730.97
2024-01-03T05:18:52.020Z,98725.81
2024-01-03T05:21:19.344Z,98722.47
2024-01-03T05:23:46.433Z,98726.72
2024-01-03T05:26:15.062Z,98720.66
2024-01-03T05:28:42.243Z,98718.00
2024-01-03T05:31:09.306Z,98712.03
2024-01-03T05:33:36.994Z,98719.44
2024-01-03T05:36:05.511Z,98722.75
2024-01-03T05:38:35.991Z,98722.38
2024-01-03T05:41:05.173Z,98721.16
2024-01-03T05:43:33.773Z,98721.91
2024-01-03T05:46:00.905Z,98720.84
2024-01-03T05:48:28.301Z,98722.41
2024-01-03T05:50:55.687Z,98718.84
2024-01-03T05:53:22.966Z,98717.84
2024-01-03T05:55:50.145Z,98721.09
2024-01-03T05:58:18.507Z,98718.19
2024-01-03T06:00:45.621Z,98722.16
2024-01-03T06:03:12.805Z,98719.50
2024-01-03T06:05:39.918Z,98722.50
2024-01-03T06:08:07.495Z,98718.75
2024-01-03T06:10:34.954Z,98729.56
2024-01-03T06:13:02.148Z,98724.31
2024-01-03T06:15:29.301Z,98724.97
2024-01-03T06:17:56.662Z,98721.41
2024-01-03T06:20:24.656Z,98723.88
2024-01-03T06:22:52.204Z,98720.16
2024-01-03T06:25:19.217Z,98719.72
2024-01-03T06:27:47.358Z,98723.84
2024-01-03T06:30:15.184Z,98717.97
2024-01-03T06:32:42.465Z,98730.03
2024-01-03T06:35:12.681Z,98739.59
2024-01-03T06:37:44.510Z,98731.88
2024-01-03T06:40:11.868Z,98728.47
2024-01-03T06:42:38.931Z,98733.16
2024-01-03T06:45:06.751Z,98738.38
2024-01-03T06:47:34.527Z,98735.81
2024-01-03T06:50:01.738Z,98739.03
2024-01-03T06:52:29.352Z,98737.69
2024-01-03T06:54:58.460Z,98735.63
2024-01-03T06:57:25.563Z,98743.09
2024-01-03T06:59:53.145Z,98738.41
2024-01-03T07:02:21.901Z,98741.47
2024-01-03T07:04:49.202Z,98735.53
2024-01-03T07:07:18.242Z,98740.06
2024-01-03T07:09:46.912Z,98737.84
2024-01-03T07:12:15.135Z,98730.69
2024-01-03T07:14:42.321Z,98711.81
2024-01-03T07:17:09.527Z,98727.66
2024-01-03T07:19:36.662Z,98729.09
2024-01-03T07:22:03.726Z,98724.59
2024-01-03T07:24:30.743Z,98727.53
2024-01-03T07:26:57.792Z,98740.09
2024-01-03T07:29:25.494Z,98746.81
2024-01-03T07:31:52.540Z,98741.75
2024-01-03T07:34:19.942Z,98724.75
2024-01-03T07:36:47.121Z,98728.13
2024-01-03T07:39:16.972Z,98729.88
2024-01-03T07:41:44.736Z,98723.28
2024-01-03T07:44:13.223Z,98731.53
2024-01-03T07:46:41.058Z,98734.19
2024-01-03T07:49:08.725Z,98734.19
2024-01-03T07:51:40.416Z,98729.28
2024-01-03T07:54:11.081Z,98732.78
2024-01-03T07:56:39.540Z,98719.88
2024-01-03T07:59:06.662Z,98729.19
2024-01-03T08:01:34.405Z,98733.63
2024-01-03T08:04:27.104Z,98729.94
2024-01-03T08:06:54.223Z,98720.28
2024-01-03T08:09:21.376Z,98716.88
2024-01-03T08:11:48.446Z,98721.75
2024-01-03T08:14:15.983Z,98725.91
2024-01-03T08:16:43.079Z,98718.78
2024-01-03T08:19:10.574Z,98726.06
2024-01-03T08:21:37.732Z,98721.34
2024-01-03T08:24:05.314Z,98718.13
2024-01-03T08:26:33.470Z,98717.59
2024-01-03T08:29:00.768Z,98713.25
2024-01-03T08:31:27.770Z,98720.06
2024-01-03T08:33:55.012Z,98718.59
2024-01-03T08:36:23.330Z,98711.09
2024-01-03T08:38:50.492Z,98710.09
2024-01-03T08:41:19.445Z,98712.31
2024-01-03T08:43:47.541Z,98708.53
2024-01-03T08:46:14.689Z,98705.84
2024-01-03T08:48:43.591Z,98706.88
2024-01-03T08:51:15.898Z,98701.81
2024-01-03T08:53:43.396Z,98705.13
2024-01-03T08:56:14.854Z,98710.19
2024-01-03T08:58:43.256Z,98705.13
2024-01-03T09:01:15.948Z,98695.34
2024-01-03T09:03:43.192Z,98701.69
2024-01-03T09:06:10.398Z,98711.94
2024-01-03T09:08:37.522Z,98705.31
2024-01-03T09:11:14.777Z,98696.25
2024-01-03T09:13:41.838Z,98702.69
2024-01-03T09:16:11.710Z,98698.88
2024-01-03T09:18:39.549Z,98692.22
2024-01-03T09:21:06.784Z,98698.75
2024-01-03T09:23:33.918Z,98695.75
2024-01-03T09:26:05.076Z,98691.94
2024-01-03T09:28:35.464Z,98689.25
2024-01-03T09:31:04.564Z,98691.13
2024-01-03T09:33:32.217Z,98688.25
2024-01-03T09:35:59.620Z,98684.91
2024-01-03T09:38:27.608Z,98686.88
2024-01-03T09:40:55.425Z,98679.75
2024-01-03T09:43:23.405Z,98697.06
2024-01-03T09:45:51.251Z,98681.69
2024-01-03T09:48:18.938Z,98678.81
2024-01-03T09:50:47.243Z,98679.78
2024-01-03T09:53:16.299Z,98687.66
2024-01-03T09:55:45.339Z,98677.19
2024-01-03T09:58:12.795Z,98677.31
2024-01-03T10:00:40.144Z,98678.44
2024-01-03T10:03:12.159Z,98681.22
2024-01-03T10:05:39.521Z,98689.81
2024-01-03T10:08:17.436Z,98683.56
2024-01-03T10:10:46.886Z,98683.22
2024-01-03T10:13:19.384Z,98689.81
2024-01-03T10:15:48.429Z,98687.06
2024-01-03T10:18:26.862Z,98692.44
2024-01-03T10:21:13.008Z,98680.13
2024-01-03T10:23:40.233Z,98683.28
2024-01-03T10:26:07.547Z,98679.63
2024-01-03T10:28:35.257Z,98679.81
2024-01-03T10:31:05.936Z,98669.09
2024-01-03T10:33:35.023Z,98652.78
2024-01-03T10:36:11.279Z,98657.91
2024-01-03T10:38:41.412Z,98670.25
2024-01-03T10:41:08.949Z,98659.47
2024-01-03T10:43:37.308Z,98659.81
2024-01-03T10:46:07.430Z,98660.34
2024-01-03T10:48:34.847Z,98669.38
2024-01-03T10:51:06.026Z,98662.63
2024-01-03T10:53:37.778Z,98665.53
2024-01-03T10:56:06.077Z,98656.75
2024-01-03T10:58:33.511Z,98658.28
2024-01-03T11:01:33.317Z,98660.88
2024-01-03T11:04:31.987Z,98662.75
2024-01-03T11:07:26.775Z,98658.59
2024-01-03T11:09:54.140Z,98665.63
2024-01-03T11:12:28.983Z,98665.16
2024-01-03T11:15:16.600Z,98657.09
2024-01-03T11:17:44.403Z,98660.94
2024-01-03T11:20:13.624Z,98660.00
2024-01-03T11:23:06.482Z,98657.41
2024-01-03T11:25:48.792Z,98656.78
2024-01-03T11:28:35.130Z,98665.66
2024-01-03T11:31:03.212Z,98665.38
2024-01-03T11:33:32.968Z,98657.41
2024-01-03T11:36:00.802Z,98652.44
2024-01-03T11:38:45.135Z,98652.44
2024-01-03T11:41:17.252Z,98644.97
2024-01-03T11:43:44.444Z,98645.25
2024-01-03T11:46:13.031Z,98645.25
2024-01-03T11:48:41.396Z,98645.16
2024-01-03T11:51:27.401Z,98647.66
2024-01-03T11:53:56.368Z,98649.69
2024-01-03T11:56:33.509Z,98648.03
2024-01-03T11:59:01.929Z,98643.34
2024-01-03T12:01:29.029Z,98634.22
2024-01-03T12:04:12.092Z,98617.34
2024-01-03T12:06:40.724Z,98629.25
2024-01-03T12:09:08.616Z,98624.09
2024-01-03T12:11:36.756Z,98630.63
2024-01-03T12:14:03.931Z,98630.63
2024-01-03T12:16:31.979Z,98638.47
2024-01-03T12:18:59.430Z,98629.44
2024-01-03T12:21:26.580Z,98638.84
2024-01-03T12:24:03.573Z,98634.88
2024-01-03T12:26:30.843Z,98636.00
2024-01-03T12:29:05.093Z,98628.72
2024-01-03T12:31:32.373Z,98628.81
2024-01-03T12:34:06.914Z,98634.06
2024-01-03T12:36:34.943Z,98628.25
2024-01-03T12:39:02.987Z,98633.13
2024-01-03T12:41:30.394Z,98626.22
2024-01-03T12:43:57.715Z,98626.22
2024-01-03T12:46:24.899Z,98621.16
2024-01-03T12:48:52.348Z,98632.50
2024-01-03T12:51:27.197Z,98622.91
2024-01-03T12:53:57.288Z,98623.00
2024-01-03T12:56:24.618Z,98625.78
2024-01-03T12:58:51.898Z,98617.34
2024-01-03T13:01:19.064Z,98623.19
2024-01-03T13:03:46.139Z,98629.09
2024-01-03T13:06:13.282Z,98622.38
2024-01-03T13:08:41.060Z,98632.69
2024-01-03T13:11:08.264Z,98627.53
2024-01-03T13:13:36.130Z,98639.59
2024-01-03T13:16:03.357Z,98637.97
2024-01-03T13:18:30.906Z,98638.59
2024-01-03T13:20:58.129Z,98642.09
2024-01-03T13:23:25.265Z,98641.06
2024-01-03T13:25:52.429Z,98634.25
2024-01-03T13:28:19.516Z,98634.44
2024-01-03T13:30:47.255Z,98632.91
2024-01-03T13:33:14.570Z,98632.09
2024-01-03T13:35:42.792Z,98634.44
2024-01-03T13:38:10.167Z,98639.31
2024-01-03T13:40:37.393Z,98648.72
2024-01-03T13:43:04.614Z,98641.06
2024-01-03T13:45:31.931Z,98639.50
2024-01-03T13:47:59.621Z,98625.16
2024-01-03T13:50:28.252Z,98620.09
2024-01-03T13:52:56.989Z,98620.94
2024-01-03T13:55:24.408Z,98620.00
2024-01-03T13:57:51.550Z,98629.59
2024-01-03T14:00:20.613Z,98624.63
2024-01-03T14:02:48.395Z,98623.06
2024-01-03T14:05:17.966Z,98628.13
2024-01-03T14:07:45.162Z,98628.97
2024-01-03T14:10:12.624Z,98632.66
2024-01-03T14:12:39.802Z,98631.88
2024-01-03T14:15:10.854Z,98639.81
2024-01-03T14:17:40.940Z,98633.28
2024-01-03T14:20:13.693Z,98624.06
2024-01-03T14:22:44.176Z,98619.63
2024-01-03T14:25:11.925Z,98622.13
2024-01-03T14:27:40.507Z,98623.78
2024-01-03T14:30:13.601Z,98622.03
2024-01-03T14:32:44.759Z,98621.00
2024-01-03T14:35:12.139Z,98605.72
2024-01-03T14:37:39.431Z,98616.97
2024-01-03T14:40:12.884Z,98617.88
2024-01-03T14:42:40.276Z,98615.41
2024-01-03T14:45:07.884Z,98623.88
2024-01-03T14:47:35.058Z,98610.06
2024-01-03T14:50:02.320Z,98614.38
2024-01-03T14:52:31.094Z,98608.41
2024-01-03T14:54:58.511Z,98610.06
2024-01-03T14:57:25.565Z,98608.78
2024-01-03T14:59:53.314Z,98613.56
2024-01-03T15:02:20.352Z,98612.81
2024-01-03T15:04:47.822Z,98615.13
2024-01-03T15:07:14.910Z,98620.19
2024-01-03T15:09:42.232Z,98612.53
2024-01-03T15:12:09.353Z,98607.38
2024-01-03T15:14:38.108Z,98608.13
2024-01-03T15:17:06.031Z,98603.59
2024-01-03T15:19:33.462Z,98614.59
2024-01-03T15:22:10.813Z,98604.91
2024-01-03T15:24:39.484Z,98597.91
2024-01-03T15:27:07.017Z,98601.13
2024-01-03T15:29:35.628Z,98594.41
2024-01-03T15:32:03.232Z,98589.63
2024-01-03T15:34:30.845Z,98594.22
2024-01-03T15:36:59.076Z,98570.97
2024-01-03T15:39:26.460Z,98580.81
2024-01-03T15:41:56.795Z,98576.69
2024-01-03T15:44:24.553Z,98582.78
2024-01-03T15:46:51.689Z,98576.59
2024-01-03T15:49:22.283Z,98579.16
2024-01-03T15:52:09.220Z,98570.50
2024-01-03T15:54:46.451Z,98567.19
2024-01-03T15:57:16.936Z,98565.44
2024-01-03T15:59:45.962Z,98565.53
2024-01-03T16:02:14.414Z,98570.50
2024-01-03T16:04:43.402Z,98569.56
2024-01-03T16:07:10.672Z,98571.63
2024-01-03T16:09:38.829Z,98569.22
2024-01-03T16:12:06.720Z,98570.25
2024-01-03T16:14:36.911Z,98568.50
2024-01-03T16:17:07.775Z,98572.63
2024-01-03T16:19:35.302Z,98565.72
2024-01-03T16:22:02.541Z,98561.38
2024-01-03T16:24:29.758Z,98563.25
2024-01-03T16:27:00.630Z,98572.75
2024-01-03T16:29:27.819Z,98560.84
2024-01-03T16:31:56.596Z,98558.47
2024-01-03T16:34:28.896Z,98556.53
2024-01-03T16:36:57.982Z,98560.56
2024-01-03T16:39:26.562Z,98557.06
2024-01-03T16:41:57.271Z,98546.91
2024-01-03T16:44:24.885Z,98546.81
2024-01-03T16:46:53.116Z,98550.13
2024-01-03T16:49:21.000Z,98548.47
2024-01-03T16:51:48.942Z,98540.94
2024-01-03T16:54:16.932Z,98547.66
2024-01-03T16:56:48.432Z,98538.97
2024-01-03T16:59:16.898Z,98536.09
2024-01-03T17:01:46.714Z,98542.72
2024-01-03T17:04:14.952Z,98538.59
2024-01-03T17:06:45.524Z,98549.75
2024-01-03T17:09:15.001Z,98545.59
2024-01-03T17:11:42.625Z,98544.66
2024-01-03T17:14:09.888Z,98558.22
2024-01-03T17:16:37.798Z,98537.13
2024-01-03T17:19:05.922Z,98547.06
2024-01-03T17:21:33.559Z,98532.16
2024-01-03T17:24:01.571Z,98540.34
2024-01-03T17:26:36.033Z,98526.69
2024-01-03T17:29:05.457Z,98530.41
2024-01-03T17:31:37.390Z,98544.34
2024-01-03T17:34:06.170Z,98535.97
2024-01-03T17:36:34.496Z,98544.00
2024-01-03T17:39:01.945Z,98551.44
2024-01-03T17:41:31.251Z,98546.63
2024-01-03T17:43:59.571Z,98540.72
2024-01-03T17:46:30.693Z,98543.44
2024-01-03T17:48:59.107Z,98552.66
2024-01-03T17:51:26.688Z,98550.63
2024-01-03T17:53:57.618Z,98536.78
2024-01-03T17:56:28.571Z,98539.38
2024-01-03T17:59:01.379Z,98536.59
2024-01-03T18:01:28.452Z,98534.72
2024-01-03T18:03:55.641Z,98536.38
2024-01-03T18:06:23.352Z,98532.16
2024-01-03T18:08:50.587Z,98534.47
2024-01-03T18:11:17.918Z,98541.84
2024-01-03T18:13:46.096Z,98530.13
2024-01-03T18:16:13.393Z,98530.72
2024-01-03T18:18:41.050Z,98528.34
2024-01-03T18:21:10.504Z,98519.56
2024-01-03T18:23:38.544Z,98520.59
2024-01-03T18:26:06.105Z,98518.81
2024-01-03T18:28:33.462Z,98516.06
2024-01-03T18:31:01.363Z,98528.34
2024-01-03T18:33:28.927Z,98521.53
2024-01-03T18:35:56.362Z,98521.84
2024-01-03T18:38:23.443Z,98530.81
2024-01-03T18:40:51.755Z,98527.91
2024-01-03T18:43:20.245Z,98536.00
2024-01-03T18:45:48.282Z,98527.31
2024-01-03T18:48:16.573Z,98537.84
2024-01-03T18:50:47.283Z,98539.72
2024-01-03T18:53:17.265Z,98530.81
2024-01-03T18:55:44.260Z,98521.97
2024-01-03T18:58:11.746Z,98529.38
2024-01-03T19:00:40.269Z,98527.19
2024-01-03T19:03:08.082Z,98532.03
2024-01-03T19:05:35.970Z,98526.38
2024-01-03T19:08:03.758Z,98516.91
2024-01-03T19:10:30.887Z,98514.06
2024-01-03T19:12:58.278Z,98519.75
2024-01-03T19:15:25.304Z,98528.06
2024-01-03T19:17:52.477Z,98522.19
2024-01-03T19:20:21.204Z,98527.25
2024-01-03T19:22:48.502Z,98528.63
2024-01-03T19:25:16.009Z,98514.69
2024-01-03T19:27:43.073Z,98517.63
2024-01-03T19:30:11.047Z,98518.28
2024-01-03T19:32:38.642Z,98513.88
2024-01-03T19:35:07.106Z,98516.25
2024-01-03T19:37:35.709Z,98501.69
2024-01-03T19:40:03.557Z,98498.56
2024-01-03T19:42:32.513Z,98496.88
2024-01-03T19:44:59.838Z,98491.00
2024-01-03T19:47:27.468Z,98492.84
2024-01-03T19:49:54.650Z,98491.28
2024-01-03T19:52:21.883Z,98491.28
2024-01-03T19:54:48.924Z,98489.53
2024-01-03T19:57:19.179Z,98486.88
2024-01-03T19:59:47.738Z,98492.66
2024-01-03T20:02:15.555Z,98494.25
2024-01-03T20:04:43.337Z,98497.56
2024-01-03T20:07:11.179Z,98500.03
2024-01-03T20:09:40.317Z,98498.72
2024-01-03T20:12:08.576Z,98499.22
2024-01-03T20:14:36.455Z,98490.44
2024-01-03T20:17:04.130Z,98493.88
2024-01-03T20:19:31.619Z,98482.09
2024-01-03T20:21:58.765Z,98492.84
2024-01-03T20:24:28.199Z,98494.88
2024-01-03T20:26:56.563Z,98501.78
2024-01-03T20:29:23.721Z,98506.69
2024-01-03T20:31:54.272Z,98503.66
2024-01-03T20:34:21.637Z,98501.25
2024-01-03T20:36:49.032Z,98485.16
2024-01-03T20:39:17.449Z,98491.88
2024-01-03T20:41:47.400Z,98484.53
2024-01-03T20:44:18.231Z,98484.91
2024-01-03T20:46:50.204Z,98479.19
2024-01-03T20:49:18.077Z,98479.84
2024-01-03T20:51:46.998Z,98478.66
2024-01-03T20:54:14.696Z,98477.84
2024-01-03T20:56:47.137Z,98474.88
2024-01-03T20:59:15.476Z,98471.56
2024-01-03T21:01:47.290Z,98471.38
2024-01-03T21:04:14.415Z,98464.22
2024-01-03T21:06:41.919Z,98471.47
2024-01-03T21:09:10.400Z,98472.00
2024-01-03T21:11:38.031Z,98475.03
2024-01-03T21:14:06.833Z,98470.41
2024-01-03T21:16:35.088Z,98475.41
2024-01-03T21:19:02.647Z,98471.91
2024-01-03T21:21:31.825Z,98471.16
2024-01-03T21:23:59.126Z,98474.50
2024-01-03T21:26:26.439Z,98465.00
2024-01-03T21:28:53.815Z,98468.56
2024-01-03T21:31:24.892Z,98471.53
2024-01-03T21:33:52.718Z,98477.06
2024-01-03T21:36:19.949Z,98470.94
2024-01-03T21:38:47.090Z,98464.56
2024-01-03T21:41:14.778Z,98458.88
2024-01-03T21:43:42.850Z,98444.31
2024-01-03T21:46:10.600Z,98450.66
2024-01-03T21:48:38.374Z,98454.72
2024-01-03T21:51:05.934Z,98453.91
2024-01-03T21:53:33.169Z,98457.31
2024-01-03T21:56:03.661Z,98456.19
2024-01-03T21:58:31.473Z,98456.75
2024-01-03T22:00:58.661Z,98440.91
2024-01-03T22:03:27.601Z,98452.69
2024-01-03T22:05:55.119Z,98460.81
2024-01-03T22:08:22.341Z,98463.19
2024-01-03T22:10:49.828Z,98457.06
2024-01-03T22:13:17.736Z,98444.91
2024-01-03T22:15:44.875Z,98455.41
2024-01-03T22:18:13.361Z,98447.75
2024-01-03T22:20:40.537Z,98457.34
2024-01-03T22:23:11.011Z,98445.75
2024-01-03T22:25:38.232Z,98441.91
2024-01-03T22:28:05.477Z,98450.59
2024-01-03T22:30:32.829Z,98454.44
2024-01-03T22:33:00.105Z,98458.03
2024-01-03T22:35:27.157Z,98458.28
2024-01-03T22:37:54.365Z,98446.69
2024-01-03T22:40:21.500Z,98455.78
2024-01-03T22:42:48.745Z,98444.09
2024-01-03T22:45:16.015Z,98445.44
2024-01-03T22:47:43.342Z,98441.75
2024-01-03T22:50:10.716Z,98440.28
2024-01-03T22:52:38.196Z,98443.34
2024-01-03T22:55:05.560Z,98443.72
2024-01-03T22:57:32.703Z,98449.53
2024-01-03T23:00:00.420Z,98445.88
2024-01-03T23:02:27.586Z,98448.47
2024-01-03T23:04:54.693Z,98453.47
2024-01-03T23:07:21.679Z,98449.63
2024-01-03T23:09:49.384Z,98440.41
2024-01-03T23:12:16.897Z,98435.53
2024-01-03T23:14:44.024Z,98436.25
2024-01-03T23:17:18.339Z,98430.09
2024-01-03T23:19:48.655Z,98420.63
2024-01-03T23:22:15.959Z,98417.78
2024-01-03T23:24:43.616Z,98423.28
2024-01-03T23:27:10.854Z,98419.75
2024-01-03T23:29:37.925Z,98417.00
2024-01-03T23:32:05.164Z,98414.03
2024-01-03T23:34:32.423Z,98403.28
2024-01-03T23:36:59.417Z,98395.16
2024-01-03T23:39:28.486Z,98395.06
2024-01-03T23:41:55.535Z,98391.13
2024-01-03T23:44:22.853Z,98399.09
2024-01-03T23:46:50.164Z,98387.06
2024-01-03T23:49:17.481Z,98392.31
2024-01-03T23:51:44.745Z,98391.03
2024-01-03T23:54:11.926Z,98390.72
2024-01-03T23:56:39.246Z,98388.44
2024-01-03T23:59:06.416Z,98384.38
